createdAt,value
2024-01-04T00:00:56.497Z,97676.96
2024-01-04T00:02:01.452Z,97673.45
2024-01-04T00:03:05.491Z,97679.48
2024-01-04T00:04:10.210Z,97684.00
2024-01-04T00:05:13.353Z,97673.30
2024-01-04T00:06:20.080Z,97675.27
2024-01-04T00:07:23.483Z,97664.73
2024-01-04T00:08:27.189Z,97657.70
2024-01-04T00:09:30.505Z,97672.09
2024-01-04T00:10:37.563Z,97661.39
2024-01-04T00:11:40.575Z,97663.21
2024-01-04T00:12:45.554Z,97663.38
2024-01-04T00:13:48.393Z,97658.18
2024-01-04T00:14:51.651Z,97654.84
2024-01-04T00:15:54.480Z,97655.83
2024-01-04T00:16:57.652Z,97656.81
2024-01-04T00:18:03.410Z,97659.65
2024-01-04T00:19:07.084Z,97652.61
2024-01-04T00:20:11.315Z,97660.64
2024-01-04T00:21:15.247Z,97669.67
2024-01-04T00:22:19.400Z,97667.98
2024-01-04T00:23:22.366Z,97662.64
2024-01-04T00:24:26.232Z,97657.45
2024-01-04T00:25:31.777Z,97659.27
2024-01-04T00:26:35.266Z,97656.59
2024-01-04T00:27:38.020Z,97661.94
2024-01-04T00:28:41.534Z,97659.27
2024-01-04T00:29:45.504Z,97658.41
2024-01-04T00:30:48.853Z,97656.72
2024-01-04T00:31:55.760Z,97656.72
2024-01-04T00:32:59.663Z,97662.06
2024-01-04T00:34:04.141Z,97653.22
2024-01-04T00:35:08.045Z,97648.03
2024-01-04T00:36:13.836Z,97652.52
2024-01-04T00:37:17.527Z,97649.02
2024-01-04T00:38:23.243Z,97655.20
2024-01-04T00:39:25.978Z,97650.55
2024-01-04T00:40:32.196Z,97653.77
2024-01-04T00:41:35.424Z,97659.80
2024-01-04T00:42:40.260Z,97657.80
2024-01-04T00:43:43.915Z,97653.16
2024-01-04T00:44:47.755Z,97653.00
2024-01-04T00:45:50.694Z,97659.88
2024-01-04T00:46:54.737Z,97658.88
2024-01-04T00:47:59.123Z,97657.86
2024-01-04T00:49:02.485Z,97650.55
2024-01-04T00:50:07.644Z,97651.20
2024-01-04T00:51:11.463Z,97656.55
2024-01-04T00:52:15.605Z,97656.39
2024-01-04T00:53:18.524Z,97657.09
2024-01-04T00:54:21.808Z,97665.12
2024-01-04T00:55:27.711Z,97658.78
2024-01-04T00:56:34.115Z,97654.26
2024-01-04T00:57:38.217Z,97654.92
2024-01-04T00:58:41.653Z,97654.92
2024-01-04T00:59:45.309Z,97654.92
2024-01-04T01:00:48.925Z,97657.60
2024-01-04T01:01:52.222Z,97659.13
2024-01-04T01:02:56.171Z,97659.98
2024-01-04T01:03:59.128Z,97656.29
2024-01-04T01:05:03.954Z,97666.98
2024-01-04T01:06:11.707Z,97665.17
2024-01-04T01:07:14.610Z,97657.15
2024-01-04T01:08:18.097Z,97660.49
2024-01-04T01:09:21.283Z,97661.35
2024-01-04T01:10:24.569Z,97662.17
2024-01-04T01:11:28.379Z,97666.54
2024-01-04T01:12:31.137Z,97663.86
2024-01-04T01:13:34.981Z,97664.69
2024-01-04T01:14:41.250Z,97663.70
2024-01-04T01:15:45.788Z,97662.84
2024-01-04T01:16:49.029Z,97656.50
2024-01-04T01:17:52.112Z,97659.18
2024-01-04T01:18:55.958Z,97660.87
2024-01-04T01:19:58.954Z,97663.38
2024-01-04T01:21:03.235Z,97665.22
2024-01-04T01:22:06.712Z,97668.73
2024-01-04T01:23:09.698Z,97665.06
2024-01-04T01:24:12.462Z,97660.55
2024-01-04T01:25:18.449Z,97657.87
2024-01-04T01:26:22.379Z,97658.73
2024-01-04T01:27:25.687Z,97656.05
2024-01-04T01:28:29.029Z,97646.18
2024-01-04T01:29:31.881Z,97657.70
2024-01-04T01:30:36.444Z,97647.00
2024-01-04T01:32:56.430Z,97644.05
2024-01-04T01:33:59.422Z,97650.38
2024-01-04T01:35:02.998Z,97654.73
2024-01-04T01:36:08.848Z,97642.35
2024-01-04T01:37:12.781Z,97652.06
2024-01-04T01:38:16.123Z,97641.36
2024-01-04T01:39:19.860Z,97648.37
2024-01-04T01:40:24.534Z,97653.55
2024-01-04T01:41:27.367Z,97657.25
2024-01-04T01:42:30.941Z,97665.12
2024-01-04T01:43:33.695Z,97661.58
2024-01-04T01:44:38.537Z,97660.59
2024-01-04T01:45:41.930Z,97661.42
2024-01-04T01:46:45.492Z,97662.44
2024-01-04T01:47:50.393Z,97662.44
2024-01-04T01:48:54.295Z,97656.23
2024-01-04T01:49:57.242Z,97658.74
2024-01-04T01:51:01.813Z,97664.26
2024-01-04T01:52:04.925Z,97672.98
2024-01-04T01:53:07.700Z,97669.45
2024-01-04T01:54:10.467Z,97664.95
2024-01-04T01:55:15.338Z,97665.78
2024-01-04T01:56:20.253Z,97667.63
2024-01-04T01:57:23.439Z,97660.43
2024-01-04T01:58:26.767Z,97663.96
2024-01-04T01:59:29.644Z,97663.96
2024-01-04T02:00:32.576Z,97673.81
2024-01-04T02:01:35.642Z,97671.98
2024-01-04T02:02:38.543Z,97667.47
2024-01-04T02:03:42.377Z,97672.98
2024-01-04T02:04:45.176Z,97673.81
2024-01-04T02:05:48.821Z,97676.48
2024-01-04T02:06:52.137Z,97669.31
2024-01-04T02:07:57.076Z,97672.81
2024-01-04T02:09:01.330Z,97674.67
2024-01-04T02:10:05.690Z,97671.98
2024-01-04T02:11:09.169Z,97677.34
2024-01-04T02:12:14.469Z,97671.98
2024-01-04T02:13:17.221Z,97677.34
2024-01-04T02:14:20.334Z,97680.02
2024-01-04T02:15:23.304Z,97671.13
2024-01-04T02:16:28.488Z,97671.13
2024-01-04T02:17:31.497Z,97674.67
2024-01-04T02:18:34.803Z,97674.67
2024-01-04T02:19:38.508Z,97672.81
2024-01-04T02:20:42.775Z,97671.98
2024-01-04T02:21:46.558Z,97669.31
2024-01-04T02:22:52.294Z,97663.11
2024-01-04T02:23:55.162Z,97665.78
2024-01-04T02:24:59.692Z,97666.64
2024-01-04T02:26:03.778Z,97659.60
2024-01-04T02:27:06.807Z,97660.43
2024-01-04T02:28:10.223Z,97663.96
2024-01-04T02:29:14.386Z,97662.28
2024-01-04T02:30:18.002Z,97655.94
2024-01-04T02:31:23.450Z,97667.47
2024-01-04T02:32:26.250Z,97663.96
2024-01-04T02:33:29.274Z,97663.96
2024-01-04T02:34:32.997Z,97669.31
2024-01-04T02:35:36.969Z,97660.43
2024-01-04T02:36:40.287Z,97668.45
2024-01-04T02:37:43.068Z,97663.11
2024-01-04T02:38:45.889Z,97659.60
2024-01-04T02:39:49.404Z,97663.11
2024-01-04T02:40:54.301Z,97672.81
2024-01-04T02:41:57.604Z,97668.45
2024-01-04T02:43:01.343Z,97675.49
2024-01-04T02:44:04.297Z,97674.67
2024-01-04T02:45:08.043Z,97677.34
2024-01-04T02:46:11.559Z,97671.13
2024-01-04T02:47:15.690Z,97674.67
2024-01-04T02:48:18.725Z,97674.67
2024-01-04T02:49:23.173Z,97680.84
2024-01-04T02:50:28.729Z,97677.34
2024-01-04T02:51:31.819Z,97678.17
2024-01-04T02:52:35.124Z,97678.17
2024-01-04T02:53:37.993Z,97682.69
2024-01-04T02:54:41.163Z,97677.34
2024-01-04T02:55:44.522Z,97678.17
2024-01-04T02:56:48.463Z,97681.83
2024-01-04T02:57:52.524Z,97681.67
2024-01-04T02:58:55.561Z,97684.51
2024-01-04T02:59:58.426Z,97681.83
2024-01-04T03:01:02.406Z,97680.84
2024-01-04T03:02:05.315Z,97680.84
2024-01-04T03:03:08.698Z,97684.34
2024-01-04T03:04:12.302Z,97687.88
2024-01-04T03:05:15.752Z,97683.52
2024-01-04T03:06:23.276Z,97682.69
2024-01-04T03:07:25.984Z,97681.67
2024-01-04T03:08:28.601Z,97680.84
2024-01-04T03:09:34.230Z,97679.86
2024-01-04T03:10:37.315Z,97679.00
2024-01-04T03:11:40.196Z,97676.32
2024-01-04T03:12:45.559Z,97679.00
2024-01-04T03:13:48.392Z,97687.88
2024-01-04T03:14:51.702Z,97685.20
2024-01-04T03:15:54.528Z,97681.67
2024-01-04T03:16:58.965Z,97688.70
2024-01-04T03:18:02.648Z,97682.53
2024-01-04T03:19:06.128Z,97689.53
2024-01-04T03:20:10.863Z,97684.34
2024-01-04T03:21:14.140Z,97684.19
2024-01-04T03:22:16.872Z,97686.86
2024-01-04T03:23:20.541Z,97689.53
2024-01-04T03:24:23.286Z,97692.21
2024-01-04T03:25:42.125Z,97694.89
2024-01-04T03:26:45.784Z,97695.75
2024-01-04T03:27:48.461Z,97688.70
2024-01-04T03:28:51.653Z,97693.07
2024-01-04T03:29:56.050Z,97703.77
2024-01-04T03:31:00.959Z,97703.77
2024-01-04T03:32:06.937Z,97710.11
2024-01-04T03:33:10.352Z,97703.77
2024-01-04T03:34:14.163Z,97699.41
2024-01-04T03:35:18.217Z,97711.80
2024-01-04T03:36:21.774Z,97709.95
2024-01-04T03:37:24.724Z,97710.94
2024-01-04T03:38:28.073Z,97708.13
2024-01-04T03:39:30.800Z,97709.95
2024-01-04T03:40:35.740Z,97719.83
2024-01-04T03:41:39.430Z,97704.60
2024-01-04T03:42:43.234Z,97710.81
2024-01-04T03:43:46.172Z,97709.79
2024-01-04T03:44:50.817Z,97705.46
2024-01-04T03:45:54.641Z,97703.61
2024-01-04T03:46:57.483Z,97707.97
2024-01-04T03:48:01.478Z,97708.80
2024-01-04T03:49:05.062Z,97706.95
2024-01-04T03:50:10.506Z,97711.48
2024-01-04T03:51:14.911Z,97702.46
2024-01-04T03:52:18.004Z,97702.30
2024-01-04T03:54:24.087Z,97704.97
2024-01-04T03:55:28.961Z,97707.48
2024-01-04T03:56:32.294Z,97703.98
2024-01-04T03:57:35.191Z,97704.81
2024-01-04T03:58:38.864Z,97709.17
2024-01-04T03:59:42.348Z,97709.17
2024-01-04T04:00:46.327Z,97720.70
2024-01-04T04:01:49.815Z,97712.67
2024-01-04T04:02:52.806Z,97706.50
2024-01-04T04:03:55.746Z,97714.53
2024-01-04T04:04:58.493Z,97711.85
2024-01-04T04:06:06.599Z,97712.84
2024-01-04T04:07:10.854Z,97713.67
2024-01-04T04:08:14.050Z,97711.85
2024-01-04T04:09:19.099Z,97722.55
2024-01-04T04:10:22.980Z,97711.85
2024-01-04T04:11:26.176Z,97711.85
2024-01-04T04:12:29.003Z,97719.88
2024-01-04T04:13:32.929Z,97722.55
2024-01-04T04:14:36.885Z,97722.55
2024-01-04T04:15:39.896Z,97726.06
2024-01-04T04:16:43.017Z,97726.88
2024-01-04T04:17:45.977Z,97719.72
2024-01-04T04:18:50.681Z,97726.88
2024-01-04T04:19:54.553Z,97724.21
2024-01-04T04:20:59.383Z,97727.74
2024-01-04T04:22:06.142Z,97729.56
2024-01-04T04:23:08.272Z,97728.73
2024-01-04T04:24:11.670Z,97736.60
2024-01-04T04:25:14.534Z,97730.42
2024-01-04T04:26:24.214Z,97726.88
2024-01-04T04:27:27.101Z,97733.92
2024-01-04T04:28:31.513Z,97726.75
2024-01-04T04:29:34.666Z,97735.61
2024-01-04T04:30:38.010Z,97730.26
2024-01-04T04:31:41.053Z,97729.27
2024-01-04T04:32:44.660Z,97732.94
2024-01-04T04:33:49.525Z,97729.27
2024-01-04T04:34:52.370Z,97729.27
2024-01-04T04:36:01.252Z,97734.63
2024-01-04T04:37:00.510Z,97736.44
2024-01-04T04:38:04.061Z,97738.28
2024-01-04T04:39:08.842Z,97735.61
2024-01-04T04:40:15.894Z,97738.28
2024-01-04T04:41:18.719Z,97734.63
2024-01-04T04:42:22.388Z,97746.31
2024-01-04T04:43:25.657Z,97738.28
2024-01-04T04:44:30.266Z,97739.12
2024-01-04T04:45:34.391Z,97734.63
2024-01-04T04:46:37.346Z,97741.79
2024-01-04T04:47:40.517Z,97737.30
2024-01-04T04:48:44.381Z,97736.44
2024-01-04T04:49:48.488Z,97731.09
2024-01-04T04:50:55.349Z,97734.63
2024-01-04T04:51:58.315Z,97739.12
2024-01-04T04:53:01.206Z,97734.78
2024-01-04T04:54:03.829Z,97731.09
2024-01-04T04:55:10.164Z,97737.30
2024-01-04T04:56:13.400Z,97731.95
2024-01-04T04:57:18.038Z,97731.95
2024-01-04T04:58:30.365Z,97725.73
2024-01-04T04:59:33.255Z,97733.77
2024-01-04T05:00:36.954Z,97732.94
2024-01-04T05:01:44.766Z,97724.91
2024-01-04T05:02:47.754Z,97725.90
2024-01-04T05:03:50.942Z,97728.41
2024-01-04T05:04:54.440Z,97731.09
2024-01-04T05:05:58.205Z,97740.14
2024-01-04T05:07:01.408Z,97736.44
2024-01-04T05:08:06.003Z,97737.30
2024-01-04T05:09:09.006Z,97737.30
2024-01-04T05:11:24.273Z,97733.48
2024-01-04T05:12:28.892Z,97740.80
2024-01-04T05:13:31.873Z,97738.13
2024-01-04T05:14:38.703Z,97751.50
2024-01-04T05:15:43.304Z,97754.19
2024-01-04T05:16:47.450Z,97755.01
2024-01-04T05:17:50.546Z,97753.36
2024-01-04T05:18:53.586Z,97755.01
2024-01-04T05:19:57.395Z,97761.38
2024-01-04T05:21:01.316Z,97761.38
2024-01-04T05:22:04.415Z,97758.70
2024-01-04T05:23:07.825Z,97768.55
2024-01-04T05:24:10.563Z,97765.88
2024-01-04T05:25:13.598Z,97772.09
2024-01-04T05:26:23.357Z,97764.06
2024-01-04T05:27:26.270Z,97774.77
2024-01-04T05:28:30.805Z,97777.44
2024-01-04T05:29:34.397Z,97775.59
2024-01-04T05:30:37.953Z,97782.63
2024-01-04T05:31:41.139Z,97787.00
2024-01-04T05:32:44.245Z,97776.13
2024-01-04T05:33:47.800Z,97785.98
2024-01-04T05:34:50.683Z,97785.98
2024-01-04T05:35:54.414Z,97781.48
2024-01-04T05:36:57.338Z,97780.63
2024-01-04T05:38:00.234Z,97786.84
2024-01-04T05:39:03.957Z,97782.47
2024-01-04T05:40:09.988Z,97785.15
2024-01-04T05:41:12.993Z,97790.50
2024-01-04T05:42:15.709Z,97791.33
2024-01-04T05:43:19.097Z,97781.64
2024-01-04T05:44:22.133Z,97789.67
2024-01-04T05:45:25.368Z,97786.14
2024-01-04T05:46:29.137Z,97797.70
2024-01-04T05:47:31.990Z,97791.48
2024-01-04T05:48:35.000Z,97800.38
2024-01-04T05:49:38.493Z,97803.05
2024-01-04T05:50:41.872Z,97796.84
2024-01-04T05:51:44.947Z,97799.52
2024-01-04T05:52:51.654Z,97799.52
2024-01-04T05:53:54.588Z,97801.36
2024-01-04T05:54:57.632Z,97797.00
2024-01-04T05:56:01.017Z,97804.05
2024-01-04T05:57:04.799Z,97809.39
2024-01-04T05:58:07.854Z,97805.03
2024-01-04T05:59:13.528Z,97806.87
2024-01-04T06:00:18.917Z,97807.70
2024-01-04T06:01:23.585Z,97805.86
2024-01-04T06:03:40.494Z,97801.27
2024-01-04T06:04:44.455Z,97804.05
2024-01-04T06:05:47.494Z,97800.50
2024-01-04T06:06:51.139Z,97802.20
2024-01-04T06:07:55.164Z,97814.42
2024-01-04T06:09:00.706Z,97816.12
2024-01-04T06:10:05.820Z,97815.25
2024-01-04T06:11:10.931Z,97811.59
2024-01-04T06:13:28.335Z,97805.18
2024-01-04T06:14:32.145Z,97807.92
2024-01-04T06:15:35.033Z,97810.60
2024-01-04T06:16:38.534Z,97809.77
2024-01-04T06:17:42.214Z,97810.60
2024-01-04T06:18:45.883Z,97807.09
2024-01-04T06:19:51.412Z,97807.92
2024-01-04T06:20:54.602Z,97801.74
2024-01-04T06:21:57.506Z,97808.75
2024-01-04T06:23:01.153Z,97802.58
2024-01-04T06:24:05.133Z,97806.94
2024-01-04T06:25:11.366Z,97814.11
2024-01-04T06:26:19.648Z,97809.77
2024-01-04T06:27:23.872Z,97815.13
2024-01-04T06:28:26.837Z,97815.95
2024-01-04T06:29:31.424Z,97815.95
2024-01-04T06:30:36.777Z,97809.77
2024-01-04T06:31:40.630Z,97810.60
2024-01-04T06:32:43.509Z,97812.45
2024-01-04T06:33:46.476Z,97815.13
2024-01-04T06:34:50.635Z,97819.45
2024-01-04T06:35:57.587Z,97814.27
2024-01-04T06:37:00.456Z,97823.16
2024-01-04T06:38:07.366Z,97823.16
2024-01-04T06:39:11.506Z,97823.16
2024-01-04T06:40:17.387Z,97827.65
2024-01-04T06:41:20.794Z,97822.30
2024-01-04T06:42:24.480Z,97824.14
2024-01-04T06:43:27.941Z,97824.97
2024-01-04T06:44:38.500Z,97820.48
2024-01-04T06:45:37.065Z,97816.12
2024-01-04T06:46:40.785Z,97825.96
2024-01-04T06:47:44.478Z,97818.80
2024-01-04T06:48:48.396Z,97817.93
2024-01-04T06:49:51.512Z,97816.12
2024-01-04T06:50:56.683Z,97816.12
2024-01-04T06:52:00.836Z,97815.25
2024-01-04T06:53:05.091Z,97820.61
2024-01-04T06:54:09.348Z,97822.30
2024-01-04T06:55:13.326Z,97826.82
2024-01-04T06:56:18.884Z,97825.96
2024-01-04T06:57:22.417Z,97826.82
2024-01-04T06:58:25.284Z,97836.66
2024-01-04T06:59:29.264Z,97825.96
2024-01-04T07:00:32.778Z,97832.17
2024-01-04T07:01:36.345Z,97825.96
2024-01-04T07:02:39.583Z,97831.31
2024-01-04T07:03:42.800Z,97833.16
2024-01-04T07:04:46.360Z,97831.31
2024-01-04T07:05:49.807Z,97829.66
2024-01-04T07:06:53.166Z,97829.66
2024-01-04T07:07:55.943Z,97832.33
2024-01-04T07:08:59.278Z,97836.83
2024-01-04T07:10:02.512Z,97840.36
2024-01-04T07:11:08.859Z,97836.00
2024-01-04T07:12:12.500Z,97841.35
2024-01-04T07:13:15.732Z,97834.15
2024-01-04T07:14:18.712Z,97833.32
2024-01-04T07:15:22.306Z,97830.64
2024-01-04T07:16:27.742Z,97827.14
2024-01-04T07:17:30.983Z,97827.97
2024-01-04T07:19:50.116Z,97834.08
2024-01-04T07:20:54.278Z,97838.67
2024-01-04T07:21:57.245Z,97838.67
2024-01-04T07:23:00.229Z,97841.35
2024-01-04T07:24:04.033Z,97834.31
2024-01-04T07:25:07.724Z,97838.67
2024-01-04T07:26:12.045Z,97841.35
2024-01-04T07:27:15.355Z,97840.52
2024-01-04T07:28:18.556Z,97841.35
2024-01-04T07:29:21.503Z,97847.53
2024-01-04T07:30:24.426Z,97840.52
2024-01-04T07:31:27.961Z,97834.15
2024-01-04T07:32:31.152Z,97843.20
2024-01-04T07:33:34.199Z,97844.03
2024-01-04T07:34:40.612Z,97842.34
2024-01-04T07:35:44.147Z,97846.86
2024-01-04T07:36:49.388Z,97841.51
2024-01-04T07:37:52.690Z,97845.02
2024-01-04T07:38:59.411Z,97841.35
2024-01-04T07:40:04.478Z,97848.55
2024-01-04T07:41:07.849Z,97853.05
2024-01-04T07:42:10.859Z,97846.00
2024-01-04T07:43:14.000Z,97850.36
2024-01-04T07:44:17.971Z,97855.72
2024-01-04T07:45:21.224Z,97853.91
2024-01-04T07:46:25.502Z,97856.70
2024-01-04T07:47:29.709Z,97854.89
2024-01-04T07:48:34.015Z,97853.91
2024-01-04T07:49:37.441Z,97845.17
2024-01-04T07:50:42.941Z,97850.52
2024-01-04T07:51:46.112Z,97851.35
2024-01-04T07:52:50.143Z,97851.35
2024-01-04T07:53:53.113Z,97847.84
2024-01-04T07:54:55.833Z,97847.02
2024-01-04T07:55:58.791Z,97854.03
2024-01-04T07:58:16.498Z,97853.11
2024-01-04T07:59:22.484Z,97856.86
2024-01-04T08:00:26.854Z,97856.86
2024-01-04T08:01:30.035Z,97859.54
2024-01-04T08:02:33.459Z,97863.91
2024-01-04T08:03:36.405Z,97865.75
2024-01-04T08:04:39.870Z,97852.37
2024-01-04T08:05:43.766Z,97858.55
2024-01-04T08:06:48.959Z,97858.55
2024-01-04T08:07:53.012Z,97858.55
2024-01-04T08:08:55.894Z,97863.75
2024-01-04T08:10:00.376Z,97856.70
2024-01-04T08:11:04.574Z,97861.23
2024-01-04T08:12:10.066Z,97862.05
2024-01-04T08:13:14.980Z,97861.23
2024-01-04T08:14:18.048Z,97857.72
2024-01-04T08:15:20.996Z,97863.91
2024-01-04T08:16:26.490Z,97854.03
2024-01-04T08:17:29.886Z,97855.05
2024-01-04T08:18:35.054Z,97855.05
2024-01-04T08:19:38.139Z,97851.52
2024-01-04T08:20:43.566Z,97851.35
2024-01-04T08:21:46.361Z,97857.72
2024-01-04T08:22:49.508Z,97858.55
2024-01-04T08:23:52.998Z,97855.05
2024-01-04T08:24:56.078Z,97857.72
2024-01-04T08:25:59.112Z,97867.56
2024-01-04T08:27:03.118Z,97855.88
2024-01-04T08:28:11.519Z,97852.37
2024-01-04T08:29:15.136Z,97858.71
2024-01-04T08:30:19.893Z,97858.71
2024-01-04T08:31:22.951Z,97864.89
2024-01-04T08:32:26.031Z,97857.88
2024-01-04T08:33:29.961Z,97870.25
2024-01-04T08:34:33.778Z,97872.09
2024-01-04T08:35:37.199Z,97863.23
2024-01-04T08:36:42.573Z,97867.56
2024-01-04T08:37:47.207Z,97867.56
2024-01-04T08:38:51.361Z,97865.91
2024-01-04T08:39:55.401Z,97866.74
2024-01-04T08:40:59.851Z,97869.41
2024-01-04T08:42:04.558Z,97869.41
2024-01-04T08:43:07.546Z,97869.41
2024-01-04T08:44:11.438Z,97866.74
2024-01-04T08:45:14.485Z,97860.56
2024-01-04T08:46:20.373Z,97861.39
2024-01-04T08:47:27.253Z,97863.23
2024-01-04T08:48:30.559Z,97865.05
2024-01-04T08:49:34.174Z,97857.02
2024-01-04T08:50:38.415Z,97861.39
2024-01-04T08:51:42.176Z,97861.55
2024-01-04T08:52:45.997Z,97864.06
2024-01-04T08:53:50.232Z,97865.91
2024-01-04T08:54:53.186Z,97865.05
2024-01-04T08:55:57.105Z,97866.74
2024-01-04T08:57:00.512Z,97856.03
2024-01-04T08:58:04.527Z,97862.22
2024-01-04T08:59:08.831Z,97865.05
2024-01-04T09:00:13.458Z,97858.71
2024-01-04T09:01:18.088Z,97858.71
2024-01-04T09:02:21.488Z,97859.70
2024-01-04T09:03:24.315Z,97863.23
2024-01-04T09:04:27.843Z,97859.70
2024-01-04T09:05:32.022Z,97855.20
2024-01-04T09:06:37.342Z,97859.70
2024-01-04T09:07:41.380Z,97860.56
2024-01-04T09:08:45.275Z,97852.53
2024-01-04T09:09:48.364Z,97853.36
2024-01-04T09:10:52.853Z,97857.02
2024-01-04T09:11:57.194Z,97848.01
2024-01-04T09:13:01.133Z,97851.67
2024-01-04T09:14:05.674Z,97851.67
2024-01-04T09:15:09.068Z,97852.53
2024-01-04T09:16:14.326Z,97854.34
2024-01-04T09:17:18.214Z,97854.34
2024-01-04T09:18:22.665Z,97856.20
2024-01-04T09:19:29.036Z,97856.20
2024-01-04T09:20:31.174Z,97854.34
2024-01-04T09:21:36.631Z,97857.02
2024-01-04T09:22:41.322Z,97857.02
2024-01-04T09:23:45.621Z,97856.20
2024-01-04T09:24:48.572Z,97856.03
2024-01-04T09:25:52.493Z,97857.02
2024-01-04T09:26:56.948Z,97861.55
2024-01-04T09:28:02.096Z,97855.20
2024-01-04T09:29:05.432Z,97855.20
2024-01-04T09:30:10.467Z,97854.34
2024-01-04T09:31:13.670Z,97854.34
2024-01-04T09:32:16.745Z,97861.39
2024-01-04T09:33:21.518Z,97856.20
2024-01-04T09:35:38.985Z,97860.63
2024-01-04T09:36:42.306Z,97866.90
2024-01-04T09:37:46.092Z,97858.01
2024-01-04T09:38:49.591Z,97858.87
2024-01-04T09:39:52.956Z,97856.20
2024-01-04T09:40:59.940Z,97864.22
2024-01-04T09:42:06.557Z,97859.70
2024-01-04T09:43:11.129Z,97859.70
2024-01-04T09:44:15.638Z,97857.88
2024-01-04T09:45:20.706Z,97858.01
2024-01-04T09:46:25.496Z,97854.34
2024-01-04T09:47:30.470Z,97859.70
2024-01-04T09:48:35.132Z,97856.20
2024-01-04T09:49:38.324Z,97857.02
2024-01-04T09:50:43.967Z,97862.38
2024-01-04T09:51:48.974Z,97858.87
2024-01-04T09:52:54.393Z,97857.02
2024-01-04T09:53:57.202Z,97850.45
2024-01-04T09:55:00.254Z,97855.33
2024-01-04T09:56:03.872Z,97859.86
2024-01-04T09:57:10.376Z,97856.20
2024-01-04T09:58:13.258Z,97855.33
2024-01-04T09:59:16.384Z,97856.20
2024-01-04T10:00:22.860Z,97856.20
2024-01-04T10:01:36.457Z,97852.66
2024-01-04T10:02:42.861Z,97849.98
2024-01-04T10:03:47.904Z,97855.33
2024-01-04T10:04:52.158Z,97858.01
2024-01-04T10:05:57.003Z,97854.34
2024-01-04T10:07:01.513Z,97849.98
2024-01-04T10:08:13.073Z,97848.33
2024-01-04T10:09:22.919Z,97848.33
2024-01-04T10:10:31.607Z,97847.30
2024-01-04T10:11:39.802Z,97843.80
2024-01-04T10:12:43.370Z,97842.97
2024-01-04T10:13:46.214Z,97839.59
2024-01-04T10:14:49.222Z,97839.59
2024-01-04T10:15:52.034Z,97843.13
2024-01-04T10:16:59.932Z,97848.33
2024-01-04T10:18:05.295Z,97847.46
2024-01-04T10:19:08.517Z,97846.64
2024-01-04T10:20:13.226Z,97843.95
2024-01-04T10:21:16.837Z,97837.78
2024-01-04T10:22:22.609Z,97842.27
2024-01-04T10:23:26.138Z,97843.13
2024-01-04T10:24:30.933Z,97838.77
2024-01-04T10:25:35.856Z,97836.09
2024-01-04T10:26:39.405Z,97830.58
2024-01-04T10:27:44.281Z,97840.45
2024-01-04T10:28:47.554Z,97838.61
2024-01-04T10:29:52.350Z,97838.61
2024-01-04T10:30:58.903Z,97830.58
2024-01-04T10:33:41.052Z,97831.31
2024-01-04T10:34:43.506Z,97825.23
2024-01-04T10:35:46.491Z,97825.23
2024-01-04T10:36:49.868Z,97830.58
2024-01-04T10:38:01.535Z,97824.40
2024-01-04T10:39:09.307Z,97827.08
2024-01-04T10:40:17.671Z,97819.88
2024-01-04T10:41:20.465Z,97827.91
2024-01-04T10:42:24.751Z,97827.91
2024-01-04T10:43:31.917Z,97827.08
2024-01-04T10:44:34.984Z,97828.73
2024-01-04T10:45:37.952Z,97827.08
2024-01-04T10:46:43.947Z,97827.91
2024-01-04T10:47:50.369Z,97825.23
2024-01-04T10:48:54.428Z,97819.88
2024-01-04T10:49:59.274Z,97825.23
2024-01-04T10:51:06.585Z,97830.58
2024-01-04T10:52:13.735Z,97832.43
2024-01-04T10:53:17.120Z,97827.91
2024-01-04T10:54:20.984Z,97829.75
2024-01-04T10:55:26.985Z,97828.73
2024-01-04T10:56:35.696Z,97835.93
2024-01-04T10:57:40.078Z,97833.25
2024-01-04T10:58:43.562Z,97830.58
2024-01-04T10:59:47.425Z,97830.58
2024-01-04T11:00:54.454Z,97830.58
2024-01-04T11:02:00.992Z,97835.93
2024-01-04T11:03:05.607Z,97833.25
2024-01-04T11:04:09.506Z,97840.45
2024-01-04T11:05:14.352Z,97831.41
2024-01-04T11:06:19.663Z,97827.08
2024-01-04T11:07:23.180Z,97830.58
2024-01-04T11:08:28.701Z,97830.58
2024-01-04T11:09:31.476Z,97827.08
2024-01-04T11:10:36.437Z,97830.58
2024-01-04T11:11:39.662Z,97827.91
2024-01-04T11:12:45.078Z,97825.23
2024-01-04T11:13:47.947Z,97828.73
2024-01-04T11:14:51.997Z,97833.09
2024-01-04T11:15:57.075Z,97827.74
2024-01-04T11:17:19.155Z,97826.05
2024-01-04T11:18:41.135Z,97830.58
2024-01-04T11:20:02.999Z,97828.73
2024-01-04T11:22:41.663Z,97825.13
2024-01-04T11:24:10.551Z,97825.39
2024-01-04T11:25:40.328Z,97822.71
2024-01-04T11:26:47.091Z,97826.38
2024-01-04T11:27:50.015Z,97819.33
2024-01-04T11:28:52.889Z,97815.00
2024-01-04T11:29:55.873Z,97822.17
2024-01-04T11:31:00.412Z,97820.52
2024-01-04T11:32:07.516Z,97825.86
2024-01-04T11:33:11.563Z,97832.05
2024-01-04T11:34:14.510Z,97833.03
2024-01-04T11:35:18.748Z,97831.22
2024-01-04T11:36:26.974Z,97825.00
2024-01-04T11:37:33.407Z,97819.66
2024-01-04T11:38:38.053Z,97824.02
2024-01-04T11:40:00.597Z,97821.34
2024-01-04T11:41:05.542Z,97826.69
2024-01-04T11:42:15.615Z,97819.49
2024-01-04T11:43:18.994Z,97825.00
2024-01-04T11:44:21.895Z,97829.37
2024-01-04T11:45:25.775Z,97819.49
2024-01-04T11:46:30.526Z,97820.52
2024-01-04T11:47:39.087Z,97817.84
2024-01-04T11:50:08.972Z,97836.31
2024-01-04T11:51:06.052Z,97831.05
2024-01-04T11:52:08.781Z,97829.20
2024-01-04T11:53:13.513Z,97830.20
2024-01-04T11:54:23.065Z,97827.52
2024-01-04T11:55:29.821Z,97833.58
2024-01-04T11:56:33.158Z,97830.89
2024-01-04T11:58:40.295Z,97837.08
2024-01-04T11:59:43.696Z,97829.52
2024-01-04T12:02:03.156Z,97839.50
2024-01-04T12:04:19.159Z,97844.12
2024-01-04T12:05:23.367Z,97845.80
2024-01-04T12:08:36.583Z,97845.80
2024-01-04T12:09:44.122Z,97842.27
2024-01-04T12:12:09.040Z,97842.02
2024-01-04T12:13:11.913Z,97843.95
2024-01-04T12:14:14.811Z,97841.28
2024-01-04T12:16:33.923Z,97838.52
2024-01-04T12:17:37.185Z,97834.09
2024-01-04T12:18:41.196Z,97847.46
2024-01-04T12:19:44.790Z,97845.65
2024-01-04T12:20:47.985Z,97845.65
2024-01-04T12:21:52.905Z,97842.97
2024-01-04T12:22:57.615Z,97840.30
2024-01-04T12:24:00.403Z,97845.65
2024-01-04T12:25:07.145Z,97840.30
2024-01-04T12:26:10.501Z,97837.63
2024-01-04T12:27:13.510Z,97843.80
2024-01-04T12:28:16.625Z,97844.63
2024-01-04T12:29:19.438Z,97847.30
2024-01-04T12:30:24.574Z,97849.16
2024-01-04T12:31:28.786Z,97842.97
2024-01-04T12:32:33.968Z,97843.80
2024-01-04T12:33:38.512Z,97844.63
2024-01-04T12:34:45.997Z,97844.63
2024-01-04T12:35:57.344Z,97849.16
2024-01-04T12:37:07.611Z,97847.30
2024-01-04T12:38:12.688Z,97839.28
2024-01-04T12:39:15.470Z,97843.80
2024-01-04T12:40:20.116Z,97845.65
2024-01-04T12:41:29.861Z,97846.48
2024-01-04T12:42:33.418Z,97845.65
2024-01-04T12:43:37.624Z,97844.79
2024-01-04T12:44:40.648Z,97845.80
2024-01-04T12:45:44.045Z,97849.31
2024-01-04T12:46:49.034Z,97848.48
2024-01-04T12:47:56.570Z,97848.48
2024-01-04T12:49:10.711Z,97861.00
2024-01-04T12:50:19.775Z,97851.98
2024-01-04T12:51:28.645Z,97860.84
2024-01-04T12:52:32.654Z,97857.34
2024-01-04T12:54:38.137Z,97861.86
2024-01-04T12:55:42.117Z,97858.33
2024-01-04T12:56:46.141Z,97860.17
2024-01-04T12:57:50.974Z,97871.86
2024-01-04T12:58:56.673Z,97882.41
2024-01-04T13:01:03.551Z,97877.06